This is the latest recevied weather packets stored in our database for station/object KI6PPU. If no packets are shown the sender has not sent any weather packets the latest 10 day(s).
| Time | Temp. | Humidity | Pressure | Rain* | Wind** | Luminosity | Snow |
|---|---|---|---|---|---|---|---|
| 1788591153 | 11.11° C | 83% | 1017.5 hPa | 0 mm | - | 0 W/m² | - |
| 1788590848 | 10.56° C | 84% | 1017.5 hPa | 0 mm | - | 0 W/m² | - |
| 1788590544 | 11.11° C | 83% | 1017.5 hPa | 0 mm | - | 0 W/m² | - |
| 1788590242 | 11.11° C | 82% | 1017.5 hPa | 0 mm | - | 0 W/m² | - |
| 1788589939 | 10.56° C | 84% | 1017.4 hPa | 0 mm | - | 0 W/m² | - |
| 1788589634 | 11.11° C | 83% | 1017.3 hPa | 0 mm | - | 0 W/m² | - |
| 1788589334 | 11.11° C | 83% | 1017.6 hPa | 0 mm | - | 0 W/m² | - |
| 1788589028 | 10.56° C | 84% | 1017.7 hPa | 0 mm | - | 0 W/m² | - |
| 1788588722 | 10.56° C | 83% | 1017.6 hPa | 0 mm | - | 0 W/m² | - |
| 1788588418 | 11.11° C | 83% | 1017.6 hPa | 0 mm | - | 0 W/m² | - |
| 1788588115 | 11.11° C | 82% | 1017.8 hPa | 0 mm | - | 0 W/m² | - |
| 1788587813 | 11.67° C | 81% | 1017.7 hPa | 0 mm | - | 0 W/m² | - |
| 1788587508 | 11.67° C | 80% | 1017.8 hPa | 0 mm | - | 0 W/m² | - |
| 1788587203 | 11.67° C | 80% | 1017.8 hPa | 0 mm | - | 0 W/m² | - |
| 1788586593 | 11.67° C | 80% | 1017.8 hPa | 0 mm | - | 0 W/m² | - |
| 1788586288 | 12.22° C | 79% | 1017.6 hPa | 0 mm | - | 0 W/m² | - |
| 1788585987 | 12.22° C | 78% | 1017.8 hPa | 0 mm | - | 0 W/m² | - |
| 1788584461 | 12.78° C | 75% | 1017.7 hPa | 0 mm | - | 0 W/m² | - |
| 1788565015 | 25.56° C | 38% | 1016.4 hPa | 0 mm | - | 362 W/m² | - |
| 1788561370 | 23.89° C | 40% | 1016.6 hPa | 0 mm | - | 482 W/m² | - |
| 1788561065 | 24.44° C | 43% | 1016.6 hPa | 0 mm | - | 292 W/m² | - |
| 1788560156 | 24.44° C | 46% | 1016.5 hPa | 0 mm | - | 623 W/m² | - |
| 1788559856 | 24.44° C | 44% | 1016.5 hPa | 0 mm | - | 511 W/m² | - |
| 1788559550 | 25° C | 45% | 1016.6 hPa | 0 mm | - | 561 W/m² | - |
| 1788559246 | 23.89° C | 47% | 1016.5 hPa | 0 mm | - | 334 W/m² | - |
* Rain latest hour (hover to see other rain measurements)
** Current wind speed in m/s (hover to see current wind gust speed)